Orbital elements of FENGYUN 1C DEB
| Launched | 9 May 1999 |
| Flight ended | – |
| Launch site | Taiyuan Space Center, PRC |
| Owner | People's Republic of China |
| NORAD ID | 36278 |
| Date fetched |
Epoch osculation |
Inc. [°] |
Ecc. | RA asc node [hr] |
Arg Peri. [°] |
Mean anom [°] |
Mean motion [rev/day] |
Abs. mag |
| Date fetched |
Epoch osculation |
Inc. [°] |
Ecc. | RA asc node [hr] |
Arg Peri. [°] |
Mean anom [°] |
Mean motion [rev/day] |
Abs. mag |
| 2026 May 03 17:57 | 2026 Apr 30 12:13:22 | 99.1289 | 0.00600 | 3.1681 | 257.2673 | 102.1795 | 14.17635 | – |
| 2026 May 02 17:57 | 2026 Apr 30 12:13:22 | 99.1289 | 0.00600 | 3.1681 | 257.2673 | 102.1795 | 14.17635 | – |
| 2026 May 01 17:56 | 2026 Apr 30 12:13:22 | 99.1289 | 0.00600 | 3.1681 | 257.2673 | 102.1795 | 14.17635 | – |
| 2026 Apr 30 17:56 | 2026 Apr 30 12:13:22 | 99.1289 | 0.00600 | 3.1681 | 257.2673 | 102.1795 | 14.17635 | – |
| 2026 Apr 29 17:57 | 2026 Apr 23 17:36:28 | 99.1282 | 0.00602 | 2.7040 | 276.8662 | 102.1795 | 14.17635 | – |
| 2026 Apr 28 17:56 | 2026 Apr 23 17:36:28 | 99.1282 | 0.00602 | 2.7040 | 276.8662 | 102.1795 | 14.17635 | – |
| 2026 Apr 27 17:58 | 2026 Apr 23 17:36:28 | 99.1282 | 0.00602 | 2.7040 | 276.8662 | 102.1795 | 14.17635 | – |
| 2026 Apr 26 17:58 | 2026 Apr 23 17:36:28 | 99.1282 | 0.00602 | 2.7040 | 276.8662 | 102.1795 | 14.17635 | – |
| 2026 Apr 25 17:58 | 2026 Apr 23 17:36:28 | 99.1282 | 0.00602 | 2.7040 | 276.8662 | 102.1795 | 14.17635 | – |
| 2026 Apr 24 17:59 | 2026 Apr 23 17:36:28 | 99.1282 | 0.00602 | 2.7040 | 276.8662 | 102.1795 | 14.17635 | – |
| 2026 Apr 23 17:57 | 2026 Apr 17 00:41:10 | 99.1280 | 0.00605 | 2.2449 | 296.1613 | 102.1795 | 14.17635 | – |
| 2026 Apr 22 17:57 | 2026 Apr 17 00:41:10 | 99.1280 | 0.00605 | 2.2449 | 296.1613 | 102.1795 | 14.17635 | – |
| 2026 Apr 21 17:57 | 2026 Apr 17 00:41:10 | 99.1280 | 0.00605 | 2.2449 | 296.1613 | 102.1795 | 14.17635 | – |
| 2026 Apr 20 17:57 | 2026 Apr 17 00:41:10 | 99.1280 | 0.00605 | 2.2449 | 296.1613 | 102.1795 | 14.17635 | – |
| 2026 Apr 19 17:58 | 2026 Apr 17 00:41:10 | 99.1280 | 0.00605 | 2.2449 | 296.1613 | 102.1795 | 14.17635 | – |
| 2026 Apr 18 17:56 | 2026 Apr 11 12:33:39 | 99.1277 | 0.00608 | 1.8679 | 311.9318 | 102.1795 | 14.17635 | – |
| 2026 Apr 16 17:57 | 2026 Apr 11 12:33:39 | 99.1277 | 0.00608 | 1.8679 | 311.9318 | 102.1795 | 14.17635 | – |
| 2026 Apr 14 17:57 | 2026 Apr 11 12:33:39 | 99.1277 | 0.00608 | 1.8679 | 311.9318 | 102.1795 | 14.17635 | – |
| 2026 Apr 13 17:57 | 2026 Apr 11 12:33:39 | 99.1277 | 0.00608 | 1.8679 | 311.9318 | 102.1795 | 14.17635 | – |
| 2026 Apr 12 17:57 | 2026 Apr 06 12:17:33 | 99.1277 | 0.00611 | 1.5248 | 326.1876 | 102.1795 | 14.17635 | – |
| 2026 Apr 11 17:57 | 2026 Apr 06 12:17:33 | 99.1277 | 0.00611 | 1.5248 | 326.1876 | 102.1795 | 14.17635 | – |
| 2026 Apr 10 17:58 | 2026 Apr 06 12:17:33 | 99.1277 | 0.00611 | 1.5248 | 326.1876 | 102.1795 | 14.17635 | – |
| 2026 Apr 09 18:01 | 2026 Apr 06 12:17:33 | 99.1277 | 0.00611 | 1.5248 | 326.1876 | 102.1795 | 14.17635 | – |
| 2026 Apr 08 17:57 | 2026 Apr 06 12:17:33 | 99.1277 | 0.00611 | 1.5248 | 326.1876 | 102.1795 | 14.17635 | – |
| 2026 Apr 07 17:57 | 2026 Apr 02 01:34:30 | 99.1278 | 0.00614 | 1.2203 | 338.7569 | 102.1795 | 14.17635 | – |
| 2026 Apr 06 17:57 | 2026 Apr 02 01:34:30 | 99.1278 | 0.00614 | 1.2203 | 338.7569 | 102.1795 | 14.17635 | – |